sensor_id;sensor_type;location;lat;lon;timestamp;P1;durP1;ratioP1;P2;durP2;ratioP2
10226;SDS011;15634;48.766;2.272;2023-12-14T00:00:13;5.80;;;2.28;;
10226;SDS011;15634;48.766;2.272;2023-12-14T00:02:39;4.35;;;2.30;;
10226;SDS011;15634;48.766;2.272;2023-12-14T00:05:04;4.43;;;1.98;;
10226;SDS011;15634;48.766;2.272;2023-12-14T00:07:30;4.30;;;2.20;;
10226;SDS011;15634;48.766;2.272;2023-12-14T00:09:56;5.47;;;2.30;;
10226;SDS011;15634;48.766;2.272;2023-12-14T00:12:22;5.38;;;2.22;;
10226;SDS011;15634;48.766;2.272;2023-12-14T00:14:48;4.88;;;2.30;;
10226;SDS011;15634;48.766;2.272;2023-12-14T00:17:14;6.88;;;2.40;;
10226;SDS011;15634;48.766;2.272;2023-12-14T00:19:40;3.58;;;2.20;;
10226;SDS011;15634;48.766;2.272;2023-12-14T00:22:07;6.35;;;2.60;;
10226;SDS011;15634;48.766;2.272;2023-12-14T00:24:33;6.20;;;2.33;;
10226;SDS011;15634;48.766;2.272;2023-12-14T00:26:59;4.88;;;2.40;;
10226;SDS011;15634;48.766;2.272;2023-12-14T00:29:25;6.25;;;2.33;;
10226;SDS011;15634;48.766;2.272;2023-12-14T00:31:51;6.97;;;2.45;;
10226;SDS011;15634;48.766;2.272;2023-12-14T00:34:16;5.53;;;2.30;;
10226;SDS011;15634;48.766;2.272;2023-12-14T00:36:42;5.20;;;2.40;;
10226;SDS011;15634;48.766;2.272;2023-12-14T00:39:08;5.45;;;2.13;;
10226;SDS011;15634;48.766;2.272;2023-12-14T00:41:34;4.32;;;2.30;;
10226;SDS011;15634;48.766;2.272;2023-12-14T00:44:00;3.03;;;2.10;;
10226;SDS011;15634;48.766;2.272;2023-12-14T00:46:26;4.85;;;2.10;;
10226;SDS011;15634;48.766;2.272;2023-12-14T00:48:52;3.85;;;1.85;;
10226;SDS011;15634;48.766;2.272;2023-12-14T00:51:17;6.82;;;2.10;;
10226;SDS011;15634;48.766;2.272;2023-12-14T00:53:43;5.65;;;1.80;;
10226;SDS011;15634;48.766;2.272;2023-12-14T00:56:09;5.53;;;2.20;;
10226;SDS011;15634;48.766;2.272;2023-12-14T00:58:35;7.15;;;2.17;;
10226;SDS011;15634;48.766;2.272;2023-12-14T01:01:01;6.38;;;2.75;;
10226;SDS011;15634;48.766;2.272;2023-12-14T01:03:27;3.22;;;2.10;;
10226;SDS011;15634;48.766;2.272;2023-12-14T01:05:53;8.40;;;2.75;;
10226;SDS011;15634;48.766;2.272;2023-12-14T01:08:19;9.43;;;2.92;;
10226;SDS011;15634;48.766;2.272;2023-12-14T01:10:45;7.25;;;2.25;;
10226;SDS011;15634;48.766;2.272;2023-12-14T01:13:11;6.82;;;2.88;;
10226;SDS011;15634;48.766;2.272;2023-12-14T01:15:36;7.72;;;2.13;;
10226;SDS011;15634;48.766;2.272;2023-12-14T01:18:02;4.13;;;2.33;;
10226;SDS011;15634;48.766;2.272;2023-12-14T01:20:28;5.32;;;1.98;;
10226;SDS011;15634;48.766;2.272;2023-12-14T01:22:54;4.90;;;2.20;;
10226;SDS011;15634;48.766;2.272;2023-12-14T01:25:20;5.25;;;2.45;;
10226;SDS011;15634;48.766;2.272;2023-12-14T01:27:45;7.05;;;2.30;;
10226;SDS011;15634;48.766;2.272;2023-12-14T01:30:11;6.47;;;1.98;;
10226;SDS011;15634;48.766;2.272;2023-12-14T01:32:37;4.10;;;1.90;;
10226;SDS011;15634;48.766;2.272;2023-12-14T01:35:03;5.43;;;2.20;;
10226;SDS011;15634;48.766;2.272;2023-12-14T01:37:29;5.13;;;2.15;;
10226;SDS011;15634;48.766;2.272;2023-12-14T01:39:55;3.38;;;1.85;;
10226;SDS011;15634;48.766;2.272;2023-12-14T01:42:21;7.88;;;2.08;;
10226;SDS011;15634;48.766;2.272;2023-12-14T01:44:47;6.43;;;1.80;;
10226;SDS011;15634;48.766;2.272;2023-12-14T01:47:13;6.20;;;2.13;;
10226;SDS011;15634;48.766;2.272;2023-12-14T01:49:39;3.75;;;1.90;;
10226;SDS011;15634;48.766;2.272;2023-12-14T01:52:06;3.47;;;2.15;;
10226;SDS011;15634;48.766;2.272;2023-12-14T01:54:32;6.65;;;2.10;;
10226;SDS011;15634;48.766;2.272;2023-12-14T01:56:58;4.78;;;1.88;;
10226;SDS011;15634;48.766;2.272;2023-12-14T01:59:24;5.03;;;1.55;;
10226;SDS011;15634;48.766;2.272;2023-12-14T02:01:52;4.60;;;2.08;;
10226;SDS011;15634;48.766;2.272;2023-12-14T02:04:21;4.10;;;2.10;;
10226;SDS011;15634;48.766;2.272;2023-12-14T02:06:47;6.03;;;2.17;;
10226;SDS011;15634;48.766;2.272;2023-12-14T02:09:13;3.95;;;1.70;;
10226;SDS011;15634;48.766;2.272;2023-12-14T02:11:39;4.75;;;1.80;;
10226;SDS011;15634;48.766;2.272;2023-12-14T02:14:05;4.00;;;1.77;;
10226;SDS011;15634;48.766;2.272;2023-12-14T02:16:31;3.90;;;1.52;;
10226;SDS011;15634;48.766;2.272;2023-12-14T02:18:57;4.88;;;1.60;;
10226;SDS011;15634;48.766;2.272;2023-12-14T02:21:23;3.17;;;1.70;;
10226;SDS011;15634;48.766;2.272;2023-12-14T02:23:49;2.92;;;1.70;;
10226;SDS011;15634;48.766;2.272;2023-12-14T02:26:15;2.58;;;1.70;;
10226;SDS011;15634;48.766;2.272;2023-12-14T02:28:41;3.33;;;1.60;;
10226;SDS011;15634;48.766;2.272;2023-12-14T02:31:07;3.15;;;2.10;;
10226;SDS011;15634;48.766;2.272;2023-12-14T02:33:33;3.72;;;1.83;;
10226;SDS011;15634;48.766;2.272;2023-12-14T02:35:59;4.38;;;1.80;;
10226;SDS011;15634;48.766;2.272;2023-12-14T02:38:25;4.93;;;2.22;;
10226;SDS011;15634;48.766;2.272;2023-12-14T02:40:51;3.33;;;1.83;;
10226;SDS011;15634;48.766;2.272;2023-12-14T02:43:18;3.15;;;1.70;;
10226;SDS011;15634;48.766;2.272;2023-12-14T02:45:44;4.03;;;1.92;;
10226;SDS011;15634;48.766;2.272;2023-12-14T02:48:10;1.98;;;1.75;;
10226;SDS011;15634;48.766;2.272;2023-12-14T02:50:36;3.13;;;1.73;;
10226;SDS011;15634;48.766;2.272;2023-12-14T02:53:02;4.45;;;1.75;;
10226;SDS011;15634;48.766;2.272;2023-12-14T02:55:28;5.43;;;1.90;;
10226;SDS011;15634;48.766;2.272;2023-12-14T02:57:54;3.30;;;1.60;;
10226;SDS011;15634;48.766;2.272;2023-12-14T03:00:20;3.05;;;1.70;;
10226;SDS011;15634;48.766;2.272;2023-12-14T03:02:46;2.03;;;1.58;;
10226;SDS011;15634;48.766;2.272;2023-12-14T03:05:12;3.28;;;1.88;;
10226;SDS011;15634;48.766;2.272;2023-12-14T03:07:38;2.85;;;1.65;;
10226;SDS011;15634;48.766;2.272;2023-12-14T03:10:04;3.72;;;1.77;;
10226;SDS011;15634;48.766;2.272;2023-12-14T03:12:30;2.08;;;1.40;;
10226;SDS011;15634;48.766;2.272;2023-12-14T03:14:56;4.40;;;1.50;;
10226;SDS011;15634;48.766;2.272;2023-12-14T03:17:21;2.30;;;1.55;;
10226;SDS011;15634;48.766;2.272;2023-12-14T03:19:47;1.42;;;1.33;;
10226;SDS011;15634;48.766;2.272;2023-12-14T03:22:13;3.75;;;1.80;;
10226;SDS011;15634;48.766;2.272;2023-12-14T03:24:39;2.75;;;1.50;;
10226;SDS011;15634;48.766;2.272;2023-12-14T03:27:04;2.13;;;1.40;;
10226;SDS011;15634;48.766;2.272;2023-12-14T03:29:30;2.13;;;1.70;;
10226;SDS011;15634;48.766;2.272;2023-12-14T03:31:56;3.03;;;1.45;;
10226;SDS011;15634;48.766;2.272;2023-12-14T03:34:22;4.45;;;1.33;;
10226;SDS011;15634;48.766;2.272;2023-12-14T03:36:48;2.85;;;1.60;;
10226;SDS011;15634;48.766;2.272;2023-12-14T03:39:15;2.70;;;1.63;;
10226;SDS011;15634;48.766;2.272;2023-12-14T03:41:41;2.00;;;1.70;;
10226;SDS011;15634;48.766;2.272;2023-12-14T03:44:07;3.08;;;1.80;;
10226;SDS011;15634;48.766;2.272;2023-12-14T03:46:33;6.70;;;2.00;;
10226;SDS011;15634;48.766;2.272;2023-12-14T03:48:59;2.80;;;1.60;;
10226;SDS011;15634;48.766;2.272;2023-12-14T03:51:25;6.57;;;2.05;;
10226;SDS011;15634;48.766;2.272;2023-12-14T03:53:51;2.13;;;1.48;;
10226;SDS011;15634;48.766;2.272;2023-12-14T03:56:17;3.28;;;1.60;;
10226;SDS011;15634;48.766;2.272;2023-12-14T03:58:43;3.97;;;1.52;;
10226;SDS011;15634;48.766;2.272;2023-12-14T04:01:18;3.92;;;1.80;;
10226;SDS011;15634;48.766;2.272;2023-12-14T04:03:45;3.17;;;2.10;;
10226;SDS011;15634;48.766;2.272;2023-12-14T04:06:11;3.95;;;2.05;;
10226;SDS011;15634;48.766;2.272;2023-12-14T04:08:37;4.88;;;2.22;;
10226;SDS011;15634;48.766;2.272;2023-12-14T04:11:04;4.50;;;2.40;;
10226;SDS011;15634;48.766;2.272;2023-12-14T04:13:30;5.15;;;2.75;;
10226;SDS011;15634;48.766;2.272;2023-12-14T04:15:56;7.13;;;2.70;;
10226;SDS011;15634;48.766;2.272;2023-12-14T04:18:22;7.68;;;3.00;;
10226;SDS011;15634;48.766;2.272;2023-12-14T04:20:48;4.55;;;2.95;;
10226;SDS011;15634;48.766;2.272;2023-12-14T04:23:14;8.45;;;2.60;;
10226;SDS011;15634;48.766;2.272;2023-12-14T04:25:40;5.55;;;3.00;;
10226;SDS011;15634;48.766;2.272;2023-12-14T04:28:05;7.97;;;3.40;;
10226;SDS011;15634;48.766;2.272;2023-12-14T04:30:31;8.82;;;2.88;;
10226;SDS011;15634;48.766;2.272;2023-12-14T04:32:57;6.88;;;3.22;;
10226;SDS011;15634;48.766;2.272;2023-12-14T04:35:23;7.70;;;3.13;;
10226;SDS011;15634;48.766;2.272;2023-12-14T04:37:49;9.10;;;3.53;;
10226;SDS011;15634;48.766;2.272;2023-12-14T04:40:14;8.98;;;3.38;;
10226;SDS011;15634;48.766;2.272;2023-12-14T04:42:41;8.20;;;3.60;;
10226;SDS011;15634;48.766;2.272;2023-12-14T04:45:07;8.85;;;3.58;;
10226;SDS011;15634;48.766;2.272;2023-12-14T04:47:36;8.75;;;3.65;;
10226;SDS011;15634;48.766;2.272;2023-12-14T04:50:02;8.50;;;3.75;;
10226;SDS011;15634;48.766;2.272;2023-12-14T04:52:28;9.55;;;3.92;;
10226;SDS011;15634;48.766;2.272;2023-12-14T04:54:54;9.35;;;4.03;;
10226;SDS011;15634;48.766;2.272;2023-12-14T04:57:19;13.43;;;4.40;;
10226;SDS011;15634;48.766;2.272;2023-12-14T04:59:45;13.07;;;3.92;;
10226;SDS011;15634;48.766;2.272;2023-12-14T05:02:11;11.60;;;4.47;;
10226;SDS011;15634;48.766;2.272;2023-12-14T05:04:37;13.23;;;4.45;;
10226;SDS011;15634;48.766;2.272;2023-12-14T05:07:03;9.57;;;4.25;;
10226;SDS011;15634;48.766;2.272;2023-12-14T05:09:29;10.30;;;4.20;;
10226;SDS011;15634;48.766;2.272;2023-12-14T05:11:54;12.68;;;4.18;;
10226;SDS011;15634;48.766;2.272;2023-12-14T05:14:20;12.85;;;3.80;;
10226;SDS011;15634;48.766;2.272;2023-12-14T05:16:46;13.73;;;4.13;;
10226;SDS011;15634;48.766;2.272;2023-12-14T05:19:12;10.35;;;3.80;;
10226;SDS011;15634;48.766;2.272;2023-12-14T05:21:39;8.85;;;4.00;;
10226;SDS011;15634;48.766;2.272;2023-12-14T05:24:04;9.68;;;4.53;;
10226;SDS011;15634;48.766;2.272;2023-12-14T05:26:30;12.18;;;3.90;;
10226;SDS011;15634;48.766;2.272;2023-12-14T05:28:57;10.95;;;3.78;;
10226;SDS011;15634;48.766;2.272;2023-12-14T05:31:23;10.40;;;4.10;;
10226;SDS011;15634;48.766;2.272;2023-12-14T05:33:48;10.23;;;4.28;;
10226;SDS011;15634;48.766;2.272;2023-12-14T05:36:14;14.73;;;4.18;;
10226;SDS011;15634;48.766;2.272;2023-12-14T05:38:40;13.13;;;4.38;;
10226;SDS011;15634;48.766;2.272;2023-12-14T05:41:06;12.70;;;3.85;;
10226;SDS011;15634;48.766;2.272;2023-12-14T05:43:32;10.43;;;3.97;;
10226;SDS011;15634;48.766;2.272;2023-12-14T05:45:58;13.23;;;4.30;;
10226;SDS011;15634;48.766;2.272;2023-12-14T05:48:24;9.77;;;3.83;;
10226;SDS011;15634;48.766;2.272;2023-12-14T05:50:51;7.18;;;3.70;;
10226;SDS011;15634;48.766;2.272;2023-12-14T05:53:17;11.38;;;3.30;;
10226;SDS011;15634;48.766;2.272;2023-12-14T05:55:43;12.50;;;3.88;;
10226;SDS011;15634;48.766;2.272;2023-12-14T05:58:09;13.55;;;4.25;;
10226;SDS011;15634;48.766;2.272;2023-12-14T06:00:35;8.20;;;3.78;;
10226;SDS011;15634;48.766;2.272;2023-12-14T06:03:01;8.65;;;3.80;;
10226;SDS011;15634;48.766;2.272;2023-12-14T06:05:28;11.65;;;4.05;;
10226;SDS011;15634;48.766;2.272;2023-12-14T06:07:53;11.15;;;3.83;;
10226;SDS011;15634;48.766;2.272;2023-12-14T06:10:19;9.23;;;3.78;;
10226;SDS011;15634;48.766;2.272;2023-12-14T06:12:46;13.57;;;4.03;;
10226;SDS011;15634;48.766;2.272;2023-12-14T06:15:12;16.33;;;4.78;;
10226;SDS011;15634;48.766;2.272;2023-12-14T06:17:37;13.73;;;3.72;;
10226;SDS011;15634;48.766;2.272;2023-12-14T06:20:05;14.60;;;4.10;;
10226;SDS011;15634;48.766;2.272;2023-12-14T06:22:38;11.52;;;4.00;;
10226;SDS011;15634;48.766;2.272;2023-12-14T06:25:04;14.68;;;3.75;;
10226;SDS011;15634;48.766;2.272;2023-12-14T06:27:30;12.85;;;4.10;;
10226;SDS011;15634;48.766;2.272;2023-12-14T06:29:56;14.98;;;3.83;;
10226;SDS011;15634;48.766;2.272;2023-12-14T06:32:22;12.20;;;3.55;;
10226;SDS011;15634;48.766;2.272;2023-12-14T06:34:48;10.77;;;3.67;;
10226;SDS011;15634;48.766;2.272;2023-12-14T06:37:14;11.85;;;4.35;;
10226;SDS011;15634;48.766;2.272;2023-12-14T06:39:43;11.65;;;3.58;;
10226;SDS011;15634;48.766;2.272;2023-12-14T06:42:08;9.73;;;3.47;;
10226;SDS011;15634;48.766;2.272;2023-12-14T06:44:35;13.52;;;4.30;;
10226;SDS011;15634;48.766;2.272;2023-12-14T06:47:01;10.73;;;3.72;;
10226;SDS011;15634;48.766;2.272;2023-12-14T06:49:27;12.35;;;3.97;;
10226;SDS011;15634;48.766;2.272;2023-12-14T06:51:52;9.98;;;3.55;;
10226;SDS011;15634;48.766;2.272;2023-12-14T06:54:18;13.15;;;3.90;;
10226;SDS011;15634;48.766;2.272;2023-12-14T06:56:44;9.90;;;3.50;;
10226;SDS011;15634;48.766;2.272;2023-12-14T06:59:10;11.77;;;3.70;;
10226;SDS011;15634;48.766;2.272;2023-12-14T07:01:35;10.80;;;3.58;;
10226;SDS011;15634;48.766;2.272;2023-12-14T07:04:01;9.10;;;3.35;;
10226;SDS011;15634;48.766;2.272;2023-12-14T07:06:28;12.15;;;3.25;;
10226;SDS011;15634;48.766;2.272;2023-12-14T07:08:54;7.68;;;3.05;;
10226;SDS011;15634;48.766;2.272;2023-12-14T07:11:19;9.02;;;2.83;;
10226;SDS011;15634;48.766;2.272;2023-12-14T07:13:45;7.53;;;2.83;;
10226;SDS011;15634;48.766;2.272;2023-12-14T07:16:11;6.80;;;3.20;;
10226;SDS011;15634;48.766;2.272;2023-12-14T07:18:38;7.30;;;2.90;;
10226;SDS011;15634;48.766;2.272;2023-12-14T07:21:05;4.97;;;2.95;;
10226;SDS011;15634;48.766;2.272;2023-12-14T07:23:31;9.43;;;2.97;;
10226;SDS011;15634;48.766;2.272;2023-12-14T07:25:57;6.45;;;3.20;;
10226;SDS011;15634;48.766;2.272;2023-12-14T07:28:23;5.63;;;3.05;;
10226;SDS011;15634;48.766;2.272;2023-12-14T07:30:49;9.10;;;3.38;;
10226;SDS011;15634;48.766;2.272;2023-12-14T07:33:15;6.57;;;3.03;;
10226;SDS011;15634;48.766;2.272;2023-12-14T07:35:41;7.43;;;3.60;;
10226;SDS011;15634;48.766;2.272;2023-12-14T07:38:08;5.57;;;2.95;;
10226;SDS011;15634;48.766;2.272;2023-12-14T07:40:34;9.93;;;3.10;;
10226;SDS011;15634;48.766;2.272;2023-12-14T07:43:00;5.68;;;3.08;;
10226;SDS011;15634;48.766;2.272;2023-12-14T07:45:26;4.35;;;2.60;;
10226;SDS011;15634;48.766;2.272;2023-12-14T07:47:52;6.85;;;2.83;;
10226;SDS011;15634;48.766;2.272;2023-12-14T07:50:18;6.45;;;2.90;;
10226;SDS011;15634;48.766;2.272;2023-12-14T07:52:44;8.50;;;3.00;;
10226;SDS011;15634;48.766;2.272;2023-12-14T07:55:10;5.95;;;2.70;;
10226;SDS011;15634;48.766;2.272;2023-12-14T07:57:35;4.85;;;2.58;;
10226;SDS011;15634;48.766;2.272;2023-12-14T08:00:01;4.95;;;2.65;;
10226;SDS011;15634;48.766;2.272;2023-12-14T08:02:29;8.23;;;2.97;;
10226;SDS011;15634;48.766;2.272;2023-12-14T08:04:55;6.60;;;2.90;;
10226;SDS011;15634;48.766;2.272;2023-12-14T08:07:21;8.85;;;3.10;;
10226;SDS011;15634;48.766;2.272;2023-12-14T08:09:46;6.07;;;3.10;;
10226;SDS011;15634;48.766;2.272;2023-12-14T08:12:12;7.93;;;3.28;;
10226;SDS011;15634;48.766;2.272;2023-12-14T08:14:38;7.05;;;3.38;;
10226;SDS011;15634;48.766;2.272;2023-12-14T08:17:08;9.80;;;3.55;;
10226;SDS011;15634;48.766;2.272;2023-12-14T08:19:34;6.20;;;3.50;;
10226;SDS011;15634;48.766;2.272;2023-12-14T08:22:00;11.95;;;3.60;;
10226;SDS011;15634;48.766;2.272;2023-12-14T08:24:26;12.02;;;3.53;;
10226;SDS011;15634;48.766;2.272;2023-12-14T08:26:51;10.65;;;3.83;;
10226;SDS011;15634;48.766;2.272;2023-12-14T08:29:17;11.27;;;4.15;;
10226;SDS011;15634;48.766;2.272;2023-12-14T08:31:43;10.27;;;3.78;;
10226;SDS011;15634;48.766;2.272;2023-12-14T08:34:10;9.05;;;4.28;;
10226;SDS011;15634;48.766;2.272;2023-12-14T08:36:35;10.45;;;4.00;;
10226;SDS011;15634;48.766;2.272;2023-12-14T08:39:01;8.40;;;4.18;;
10226;SDS011;15634;48.766;2.272;2023-12-14T08:41:27;7.60;;;4.13;;
10226;SDS011;15634;48.766;2.272;2023-12-14T08:43:53;8.43;;;4.03;;
10226;SDS011;15634;48.766;2.272;2023-12-14T08:46:20;7.93;;;3.83;;
10226;SDS011;15634;48.766;2.272;2023-12-14T08:48:46;11.88;;;4.25;;
10226;SDS011;15634;48.766;2.272;2023-12-14T08:51:12;6.97;;;4.10;;
10226;SDS011;15634;48.766;2.272;2023-12-14T08:53:38;11.88;;;4.05;;
10226;SDS011;15634;48.766;2.272;2023-12-14T08:56:04;13.27;;;4.35;;
10226;SDS011;15634;48.766;2.272;2023-12-14T08:58:30;10.52;;;3.50;;
10226;SDS011;15634;48.766;2.272;2023-12-14T09:00:56;7.60;;;3.60;;
10226;SDS011;15634;48.766;2.272;2023-12-14T09:03:22;7.45;;;3.47;;
10226;SDS011;15634;48.766;2.272;2023-12-14T09:05:47;9.60;;;3.58;;
10226;SDS011;15634;48.766;2.272;2023-12-14T09:08:13;10.55;;;3.72;;
10226;SDS011;15634;48.766;2.272;2023-12-14T09:10:39;10.48;;;3.53;;
10226;SDS011;15634;48.766;2.272;2023-12-14T09:13:05;7.20;;;3.22;;
10226;SDS011;15634;48.766;2.272;2023-12-14T09:15:31;9.02;;;3.28;;
10226;SDS011;15634;48.766;2.272;2023-12-14T09:17:57;9.80;;;3.38;;
10226;SDS011;15634;48.766;2.272;2023-12-14T09:20:24;8.77;;;3.15;;
10226;SDS011;15634;48.766;2.272;2023-12-14T09:22:50;8.07;;;3.13;;
10226;SDS011;15634;48.766;2.272;2023-12-14T09:25:16;7.43;;;3.28;;
10226;SDS011;15634;48.766;2.272;2023-12-14T09:27:41;9.23;;;3.35;;
10226;SDS011;15634;48.766;2.272;2023-12-14T09:30:07;12.75;;;3.40;;
10226;SDS011;15634;48.766;2.272;2023-12-14T09:32:33;11.18;;;3.47;;
10226;SDS011;15634;48.766;2.272;2023-12-14T09:34:59;8.57;;;3.20;;
10226;SDS011;15634;48.766;2.272;2023-12-14T09:37:25;10.10;;;4.07;;
10226;SDS011;15634;48.766;2.272;2023-12-14T09:39:51;10.02;;;3.50;;
10226;SDS011;15634;48.766;2.272;2023-12-14T09:42:18;7.20;;;3.15;;
10226;SDS011;15634;48.766;2.272;2023-12-14T09:44:45;6.93;;;3.22;;
10226;SDS011;15634;48.766;2.272;2023-12-14T09:47:12;9.27;;;3.20;;
10226;SDS011;15634;48.766;2.272;2023-12-14T09:49:38;9.13;;;2.85;;
10226;SDS011;15634;48.766;2.272;2023-12-14T09:52:07;9.30;;;3.17;;
10226;SDS011;15634;48.766;2.272;2023-12-14T09:54:33;7.78;;;2.90;;
10226;SDS011;15634;48.766;2.272;2023-12-14T09:56:59;8.32;;;3.25;;
10226;SDS011;15634;48.766;2.272;2023-12-14T09:59:25;6.03;;;3.15;;
10226;SDS011;15634;48.766;2.272;2023-12-14T10:01:51;7.97;;;2.85;;
10226;SDS011;15634;48.766;2.272;2023-12-14T10:04:17;7.80;;;3.00;;
10226;SDS011;15634;48.766;2.272;2023-12-14T10:06:44;6.90;;;3.20;;
10226;SDS011;15634;48.766;2.272;2023-12-14T10:09:12;10.27;;;2.92;;
10226;SDS011;15634;48.766;2.272;2023-12-14T10:11:43;7.93;;;3.10;;
10226;SDS011;15634;48.766;2.272;2023-12-14T10:14:22;6.32;;;2.92;;
10226;SDS011;15634;48.766;2.272;2023-12-14T10:16:52;8.05;;;3.40;;
10226;SDS011;15634;48.766;2.272;2023-12-14T10:19:18;6.53;;;3.08;;
10226;SDS011;15634;48.766;2.272;2023-12-14T10:21:48;8.52;;;3.22;;
10226;SDS011;15634;48.766;2.272;2023-12-14T10:24:14;6.05;;;3.28;;
10226;SDS011;15634;48.766;2.272;2023-12-14T10:26:40;5.07;;;2.78;;
10226;SDS011;15634;48.766;2.272;2023-12-14T10:29:06;10.55;;;2.97;;
10226;SDS011;15634;48.766;2.272;2023-12-14T10:31:33;7.35;;;2.85;;
10226;SDS011;15634;48.766;2.272;2023-12-14T10:34:02;8.25;;;3.03;;
10226;SDS011;15634;48.766;2.272;2023-12-14T10:36:28;7.68;;;3.22;;
10226;SDS011;15634;48.766;2.272;2023-12-14T10:38:56;9.27;;;3.20;;
10226;SDS011;15634;48.766;2.272;2023-12-14T10:41:23;7.22;;;3.42;;
10226;SDS011;15634;48.766;2.272;2023-12-14T10:43:55;5.93;;;3.13;;
10226;SDS011;15634;48.766;2.272;2023-12-14T10:46:22;10.45;;;3.70;;
10226;SDS011;15634;48.766;2.272;2023-12-14T10:48:52;9.18;;;3.13;;
10226;SDS011;15634;48.766;2.272;2023-12-14T10:51:18;8.55;;;2.95;;
10226;SDS011;15634;48.766;2.272;2023-12-14T10:53:45;6.45;;;2.70;;
10226;SDS011;15634;48.766;2.272;2023-12-14T10:56:13;9.35;;;2.97;;
10226;SDS011;15634;48.766;2.272;2023-12-14T10:58:57;9.38;;;3.00;;
10226;SDS011;15634;48.766;2.272;2023-12-14T11:01:25;4.50;;;2.70;;
10226;SDS011;15634;48.766;2.272;2023-12-14T11:03:54;6.25;;;2.70;;
10226;SDS011;15634;48.766;2.272;2023-12-14T11:08:55;9.20;;;2.63;;
10226;SDS011;15634;48.766;2.272;2023-12-14T11:11:27;5.82;;;2.80;;
10226;SDS011;15634;48.766;2.272;2023-12-14T11:13:53;7.28;;;2.40;;
10226;SDS011;15634;48.766;2.272;2023-12-14T11:16:21;6.05;;;2.58;;
10226;SDS011;15634;48.766;2.272;2023-12-14T11:18:47;9.50;;;2.70;;
10226;SDS011;15634;48.766;2.272;2023-12-14T11:21:17;9.90;;;2.53;;
10226;SDS011;15634;48.766;2.272;2023-12-14T11:23:48;7.10;;;2.40;;
10226;SDS011;15634;48.766;2.272;2023-12-14T11:26:20;5.25;;;2.35;;
10226;SDS011;15634;48.766;2.272;2023-12-14T11:28:47;5.65;;;2.63;;
10226;SDS011;15634;48.766;2.272;2023-12-14T11:31:13;7.93;;;2.85;;
10226;SDS011;15634;48.766;2.272;2023-12-14T11:33:39;6.03;;;2.45;;
10226;SDS011;15634;48.766;2.272;2023-12-14T11:36:05;10.27;;;2.92;;
10226;SDS011;15634;48.766;2.272;2023-12-14T11:38:31;10.35;;;2.30;;
10226;SDS011;15634;48.766;2.272;2023-12-14T11:41:00;5.22;;;2.42;;
10226;SDS011;15634;48.766;2.272;2023-12-14T11:43:27;11.52;;;3.00;;
10226;SDS011;15634;48.766;2.272;2023-12-14T11:45:53;8.40;;;2.60;;
10226;SDS011;15634;48.766;2.272;2023-12-14T11:48:20;9.88;;;2.92;;
10226;SDS011;15634;48.766;2.272;2023-12-14T11:50:46;8.27;;;2.80;;
10226;SDS011;15634;48.766;2.272;2023-12-14T11:53:12;6.03;;;2.35;;
10226;SDS011;15634;48.766;2.272;2023-12-14T11:55:39;5.70;;;2.30;;
10226;SDS011;15634;48.766;2.272;2023-12-14T11:58:06;5.38;;;3.00;;
10226;SDS011;15634;48.766;2.272;2023-12-14T12:00:33;7.00;;;3.00;;
10226;SDS011;15634;48.766;2.272;2023-12-14T12:03:17;9.40;;;2.70;;
10226;SDS011;15634;48.766;2.272;2023-12-14T12:05:50;6.68;;;2.63;;
10226;SDS011;15634;48.766;2.272;2023-12-14T12:08:16;6.22;;;2.30;;
10226;SDS011;15634;48.766;2.272;2023-12-14T12:10:44;4.80;;;2.58;;
10226;SDS011;15634;48.766;2.272;2023-12-14T12:13:11;7.97;;;2.65;;
10226;SDS011;15634;48.766;2.272;2023-12-14T12:15:38;4.90;;;2.30;;
10226;SDS011;15634;48.766;2.272;2023-12-14T12:18:07;6.93;;;3.10;;
10226;SDS011;15634;48.766;2.272;2023-12-14T12:20:33;5.68;;;2.85;;
10226;SDS011;15634;48.766;2.272;2023-12-14T12:23:00;5.80;;;2.40;;
10226;SDS011;15634;48.766;2.272;2023-12-14T12:25:26;4.70;;;2.50;;
10226;SDS011;15634;48.766;2.272;2023-12-14T12:27:53;6.22;;;2.30;;
10226;SDS011;15634;48.766;2.272;2023-12-14T12:30:21;7.38;;;2.17;;
10226;SDS011;15634;48.766;2.272;2023-12-14T12:32:48;9.63;;;3.08;;
10226;SDS011;15634;48.766;2.272;2023-12-14T12:35:15;5.75;;;2.42;;
10226;SDS011;15634;48.766;2.272;2023-12-14T12:37:41;10.18;;;2.58;;
10226;SDS011;15634;48.766;2.272;2023-12-14T12:40:08;9.20;;;2.22;;
10226;SDS011;15634;48.766;2.272;2023-12-14T12:42:34;6.40;;;2.33;;
10226;SDS011;15634;48.766;2.272;2023-12-14T12:45:00;5.40;;;2.10;;
10226;SDS011;15634;48.766;2.272;2023-12-14T12:47:26;6.43;;;2.25;;
10226;SDS011;15634;48.766;2.272;2023-12-14T12:49:52;5.55;;;2.53;;
10226;SDS011;15634;48.766;2.272;2023-12-14T12:52:18;4.65;;;2.25;;
10226;SDS011;15634;48.766;2.272;2023-12-14T12:54:44;5.15;;;2.33;;
10226;SDS011;15634;48.766;2.272;2023-12-14T12:57:10;4.68;;;2.53;;
10226;SDS011;15634;48.766;2.272;2023-12-14T12:59:36;7.38;;;2.70;;
10226;SDS011;15634;48.766;2.272;2023-12-14T13:02:02;5.88;;;2.45;;
10226;SDS011;15634;48.766;2.272;2023-12-14T13:04:28;6.28;;;2.75;;
10226;SDS011;15634;48.766;2.272;2023-12-14T13:06:55;6.68;;;2.22;;
10226;SDS011;15634;48.766;2.272;2023-12-14T13:09:22;5.40;;;2.28;;
10226;SDS011;15634;48.766;2.272;2023-12-14T13:11:48;5.03;;;2.38;;
10226;SDS011;15634;48.766;2.272;2023-12-14T13:14:15;6.63;;;2.83;;
10226;SDS011;15634;48.766;2.272;2023-12-14T13:16:41;8.32;;;2.80;;
10226;SDS011;15634;48.766;2.272;2023-12-14T13:19:08;9.48;;;2.95;;
10226;SDS011;15634;48.766;2.272;2023-12-14T13:21:34;7.28;;;2.50;;
10226;SDS011;15634;48.766;2.272;2023-12-14T13:24:00;7.00;;;2.50;;
10226;SDS011;15634;48.766;2.272;2023-12-14T13:26:26;4.63;;;2.60;;
10226;SDS011;15634;48.766;2.272;2023-12-14T13:28:52;6.85;;;3.05;;
10226;SDS011;15634;48.766;2.272;2023-12-14T13:31:18;5.95;;;2.40;;
10226;SDS011;15634;48.766;2.272;2023-12-14T13:33:48;5.88;;;2.50;;
10226;SDS011;15634;48.766;2.272;2023-12-14T13:36:15;7.95;;;2.90;;
10226;SDS011;15634;48.766;2.272;2023-12-14T13:38:41;5.72;;;2.40;;
10226;SDS011;15634;48.766;2.272;2023-12-14T13:41:07;3.92;;;2.60;;
10226;SDS011;15634;48.766;2.272;2023-12-14T13:43:33;7.65;;;3.05;;
10226;SDS011;15634;48.766;2.272;2023-12-14T13:45:59;8.68;;;4.32;;
10226;SDS011;15634;48.766;2.272;2023-12-14T13:48:26;9.48;;;4.07;;
10226;SDS011;15634;48.766;2.272;2023-12-14T13:50:53;8.30;;;3.00;;
10226;SDS011;15634;48.766;2.272;2023-12-14T13:53:20;9.13;;;2.40;;
10226;SDS011;15634;48.766;2.272;2023-12-14T13:55:46;8.98;;;2.97;;
10226;SDS011;15634;48.766;2.272;2023-12-14T13:58:13;11.90;;;2.97;;
10226;SDS011;15634;48.766;2.272;2023-12-14T14:00:39;6.85;;;2.58;;
10226;SDS011;15634;48.766;2.272;2023-12-14T14:03:06;6.00;;;2.42;;
10226;SDS011;15634;48.766;2.272;2023-12-14T14:05:32;7.10;;;2.50;;
10226;SDS011;15634;48.766;2.272;2023-12-14T14:07:58;11.43;;;2.95;;
10226;SDS011;15634;48.766;2.272;2023-12-14T14:10:24;7.18;;;2.70;;
10226;SDS011;15634;48.766;2.272;2023-12-14T14:12:50;10.75;;;2.55;;
10226;SDS011;15634;48.766;2.272;2023-12-14T14:15:16;5.20;;;2.33;;
10226;SDS011;15634;48.766;2.272;2023-12-14T14:17:42;5.70;;;2.47;;
10226;SDS011;15634;48.766;2.272;2023-12-14T14:20:08;5.32;;;2.60;;
10226;SDS011;15634;48.766;2.272;2023-12-14T14:22:35;6.93;;;2.10;;
10226;SDS011;15634;48.766;2.272;2023-12-14T14:25:01;4.30;;;2.30;;
10226;SDS011;15634;48.766;2.272;2023-12-14T14:27:27;8.20;;;2.55;;
10226;SDS011;15634;48.766;2.272;2023-12-14T14:29:53;5.45;;;2.45;;
10226;SDS011;15634;48.766;2.272;2023-12-14T14:32:21;5.22;;;2.50;;
10226;SDS011;15634;48.766;2.272;2023-12-14T14:34:47;9.05;;;3.20;;
10226;SDS011;15634;48.766;2.272;2023-12-14T14:37:13;6.97;;;2.88;;
10226;SDS011;15634;48.766;2.272;2023-12-14T14:39:39;12.30;;;4.22;;
10226;SDS011;15634;48.766;2.272;2023-12-14T14:42:08;13.05;;;5.00;;